Time;durP1;ratioP1;P1;durP2;ratioP2;P2;SDS_P1;SDS_P2;PMS_P1;PMS_P2;Temp;Humidity;BMP_temperature;BMP_pressure;BME280_temperature;BME280_humidity;BME280_pressure;Samples;Min_cycle;Max_cycle;Signal;HPM_P1;HPM_P2
2022/03/28 00:00:09;;;;;;;8.70;5.97;;;11.20;99.90;;;;;;5007252;28;20057;-60
2022/03/28 00:02:40;;;;;;;10.32;6.82;;;11.10;99.90;;;;;;5009869;28;20046;-61
2022/03/28 00:05:09;;;;;;;10.18;6.68;;;11.10;99.90;;;;;;4991060;28;20042;-66
2022/03/28 00:07:37;;;;;;;10.32;7.15;;;11.10;99.90;;;;;;5008357;28;20050;-66
2022/03/28 00:10:05;;;;;;;9.85;6.40;;;11.10;99.90;;;;;;4993539;28;20497;-63
2022/03/28 00:12:33;;;;;;;8.82;6.40;;;11.10;99.90;;;;;;4973148;28;20061;-66
2022/03/28 00:15:02;;;;;;;10.23;7.00;;;11.10;99.90;;;;;;5008234;28;20509;-62
2022/03/28 00:17:31;;;;;;;10.45;6.63;;;11.10;99.90;;;;;;5007336;28;20049;-64
2022/03/28 00:20:00;;;;;;;11.73;6.75;;;11.10;99.90;;;;;;5009235;28;20061;-66
2022/03/28 00:22:28;;;;;;;10.45;6.47;;;11.10;99.90;;;;;;5008181;28;20635;-63
2022/03/28 00:24:56;;;;;;;10.73;6.68;;;11.10;99.90;;;;;;5008802;28;20049;-65
2022/03/28 00:27:24;;;;;;;10.65;6.80;;;11.10;99.90;;;;;;5008157;28;20038;-61
2022/03/28 00:29:51;;;;;;;9.60;6.32;;;11.10;99.90;;;;;;5008377;28;20046;-62
2022/03/28 00:32:19;;;;;;;10.15;6.80;;;11.10;99.90;;;;;;5009186;28;20050;-60
2022/03/28 00:34:46;;;;;;;11.88;7.43;;;11.10;99.90;;;;;;5008830;28;20485;-61
2022/03/28 00:37:14;;;;;;;11.98;7.80;;;11.10;99.90;;;;;;5008546;28;20130;-60
2022/03/28 00:39:42;;;;;;;13.18;8.00;;;11.10;99.90;;;;;;5008780;28;20045;-60
2022/03/28 00:42:11;;;;;;;11.60;8.57;;;11.20;99.90;;;;;;5007073;28;20050;-60
2022/03/28 00:44:40;;;;;;;12.60;7.57;;;11.10;99.90;;;;;;5008028;28;20050;-63
2022/03/28 00:47:07;;;;;;;15.85;8.60;;;11.10;99.90;;;;;;5006154;28;20041;-61
2022/03/28 00:49:35;;;;;;;13.85;8.35;;;11.10;99.90;;;;;;4999848;28;20165;-63
2022/03/28 00:52:04;;;;;;;13.35;9.02;;;11.10;99.90;;;;;;5008629;28;20121;-67
2022/03/28 00:54:32;;;;;;;12.57;8.52;;;11.10;99.90;;;;;;5005060;28;20386;-62
2022/03/28 00:57:00;;;;;;;13.35;9.05;;;11.10;99.90;;;;;;4977666;28;20050;-63
2022/03/28 00:59:31;;;;;;;11.05;8.35;;;11.10;99.90;;;;;;5008900;28;20054;-66
2022/03/28 01:02:01;;;;;;;12.88;8.45;;;11.10;99.90;;;;;;4997115;28;20077;-63
2022/03/28 01:04:30;;;;;;;12.88;8.32;;;11.10;99.90;;;;;;5005355;28;20117;-63
2022/03/28 01:06:57;;;;;;;13.75;8.82;;;11.10;99.90;;;;;;5006151;28;20061;-64
2022/03/28 01:09:25;;;;;;;13.77;8.98;;;11.20;99.90;;;;;;5001966;28;20037;-66
2022/03/28 01:11:54;;;;;;;12.93;8.98;;;11.20;99.90;;;;;;5008340;28;20049;-61
2022/03/28 01:14:21;;;;;;;14.48;8.40;;;11.10;99.90;;;;;;5008088;28;20041;-64
2022/03/28 01:19:35;;;;;;;13.45;8.90;;;11.20;99.90;;;;;;5007363;28;20053;-65
2022/03/28 01:22:03;;;;;;;15.02;8.65;;;11.20;99.90;;;;;;5007993;28;20062;-65
2022/03/28 01:24:31;;;;;;;15.60;8.93;;;11.20;99.90;;;;;;5007863;28;20050;-63
2022/03/28 01:27:01;;;;;;;15.15;9.73;;;11.20;99.90;;;;;;4987534;28;20521;-65
2022/03/28 01:29:29;;;;;;;17.10;9.80;;;11.20;99.90;;;;;;4988775;28;20049;-65
2022/03/28 01:31:56;;;;;;;13.75;8.65;;;11.10;99.90;;;;;;4998099;28;20050;-67
2022/03/28 01:34:24;;;;;;;13.90;9.20;;;11.10;99.90;;;;;;5003379;28;20054;-63
2022/03/28 01:36:52;;;;;;;12.27;8.15;;;11.20;99.90;;;;;;4977092;28;20501;-67
2022/03/28 01:39:20;;;;;;;13.73;8.13;;;11.20;99.90;;;;;;5011014;28;20046;-66
2022/03/28 01:41:47;;;;;;;15.35;9.00;;;11.20;99.90;;;;;;5011034;28;20046;-65
2022/03/28 01:44:15;;;;;;;14.75;8.57;;;11.20;99.90;;;;;;5002671;28;20042;-65
2022/03/28 01:46:47;;;;;;;16.15;9.48;;;11.20;99.90;;;;;;5003267;28;20065;-63
2022/03/28 01:49:17;;;;;;;14.15;9.25;;;11.20;99.90;;;;;;5006429;28;20042;-67
2022/03/28 01:51:46;;;;;;;15.75;9.25;;;11.10;99.90;;;;;;4998644;28;20501;-65
2022/03/28 01:54:13;;;;;;;12.20;7.93;;;11.10;99.90;;;;;;5011019;28;20064;-63
2022/03/28 01:56:41;;;;;;;17.42;9.32;;;11.10;99.90;;;;;;4993279;28;20489;-65
2022/03/28 01:59:10;;;;;;;14.43;8.63;;;11.10;99.90;;;;;;4993215;28;20041;-63
2022/03/28 02:01:38;;;;;;;14.00;9.15;;;11.10;99.90;;;;;;4993712;28;20053;-65
2022/03/28 02:04:05;;;;;;;12.77;8.32;;;11.00;99.90;;;;;;5011871;28;20038;-67
2022/03/28 02:06:34;;;;;;;17.70;10.40;;;11.10;99.90;;;;;;4997122;28;20129;-66
2022/03/28 02:09:02;;;;;;;17.23;9.82;;;11.00;99.90;;;;;;5015104;28;20049;-64
2022/03/28 02:11:30;;;;;;;15.75;9.93;;;11.00;99.90;;;;;;5013920;28;20524;-67
2022/03/28 02:13:58;;;;;;;14.70;9.93;;;11.00;99.90;;;;;;5014339;28;20061;-65
2022/03/28 02:16:26;;;;;;;15.05;9.30;;;11.00;99.90;;;;;;5014069;28;20049;-66
2022/03/28 02:18:56;;;;;;;16.23;10.40;;;11.00;99.90;;;;;;4997231;28;20052;-66
2022/03/28 02:21:24;;;;;;;16.60;9.98;;;11.00;99.90;;;;;;4996686;28;20053;-64
2022/03/28 02:23:51;;;;;;;17.33;10.63;;;11.00;99.90;;;;;;4996973;28;20056;-64
2022/03/28 02:26:19;;;;;;;17.05;9.60;;;11.00;99.90;;;;;;5014510;28;20062;-63
2022/03/28 02:28:47;;;;;;;15.02;9.95;;;11.00;99.90;;;;;;5014687;28;20637;-66
2022/03/28 02:31:15;;;;;;;17.20;9.80;;;11.00;99.90;;;;;;5014050;28;20045;-66
2022/03/28 02:33:44;;;;;;;18.15;10.15;;;11.00;99.90;;;;;;5013917;28;20045;-63
2022/03/28 02:36:12;;;;;;;15.93;9.73;;;11.00;99.90;;;;;;5013941;28;20046;-64
2022/03/28 02:38:42;;;;;;;14.65;10.07;;;11.00;99.90;;;;;;5014043;28;20041;-61
2022/03/28 02:41:10;;;;;;;17.67;10.30;;;11.00;99.90;;;;;;5013874;28;20042;-61
2022/03/28 02:43:38;;;;;;;15.73;10.02;;;10.90;99.90;;;;;;5014305;28;20046;-61
2022/03/28 02:46:05;;;;;;;16.40;9.70;;;10.90;99.90;;;;;;5013112;28;20054;-61
2022/03/28 02:48:33;;;;;;;20.23;10.43;;;10.90;99.90;;;;;;4977147;28;20038;-61
2022/03/28 02:51:01;;;;;;;18.63;10.73;;;10.80;99.90;;;;;;4994538;28;20054;-61
2022/03/28 02:53:28;;;;;;;20.98;11.07;;;10.80;99.90;;;;;;4994706;28;20042;-60
2022/03/28 02:55:57;;;;;;;21.55;11.23;;;10.80;99.90;;;;;;4977279;28;20058;-60
2022/03/28 02:58:25;;;;;;;26.02;12.45;;;10.80;99.90;;;;;;4996778;28;20042;-66
2022/03/28 03:00:53;;;;;;;30.27;13.13;;;10.80;99.90;;;;;;5014170;28;20042;-65
2022/03/28 03:03:21;;;;;;;27.35;11.90;;;10.70;99.90;;;;;;5014004;28;20474;-67
2022/03/28 03:05:51;;;;;;;23.50;12.45;;;10.70;99.90;;;;;;4996466;28;20056;-67
2022/03/28 03:08:19;;;;;;;24.60;13.13;;;10.70;99.90;;;;;;5013828;28;20053;-66
2022/03/28 03:10:46;;;;;;;24.52;12.20;;;10.60;99.90;;;;;;5013875;28;20050;-66
2022/03/28 03:13:14;;;;;;;21.95;12.10;;;10.60;99.90;;;;;;5013834;28;20608;-66
2022/03/28 03:15:42;;;;;;;16.58;10.50;;;10.60;99.90;;;;;;5013490;28;20061;-67
2022/03/28 03:18:09;;;;;;;19.10;10.82;;;10.60;99.90;;;;;;5013353;28;20049;-66
2022/03/28 03:20:37;;;;;;;17.23;10.63;;;10.60;99.90;;;;;;4996145;28;20046;-66
2022/03/28 03:23:05;;;;;;;18.77;11.35;;;10.60;99.90;;;;;;4996029;28;20057;-66
2022/03/28 03:25:32;;;;;;;21.83;12.30;;;10.60;99.90;;;;;;5013516;28;20057;-66
2022/03/28 03:28:02;;;;;;;21.17;12.57;;;10.60;99.90;;;;;;4996165;28;20493;-66
2022/03/28 03:30:30;;;;;;;18.77;11.77;;;10.50;99.90;;;;;;5013488;28;20057;-64
2022/03/28 03:32:57;;;;;;;17.08;11.70;;;10.50;99.90;;;;;;5013146;28;20393;-64
2022/03/28 03:35:25;;;;;;;18.98;11.32;;;10.50;99.90;;;;;;5013396;28;20046;-67
2022/03/28 03:37:53;;;;;;;19.83;12.38;;;10.40;99.90;;;;;;5013466;28;20053;-67
2022/03/28 03:40:20;;;;;;;20.90;12.45;;;10.30;99.90;;;;;;5013370;28;20481;-65
2022/03/28 03:42:48;;;;;;;21.75;12.43;;;10.30;99.90;;;;;;5013327;28;20045;-66
2022/03/28 03:45:16;;;;;;;22.23;12.25;;;10.20;99.90;;;;;;5013372;28;20050;-66
2022/03/28 03:47:44;;;;;;;18.52;11.68;;;10.20;99.90;;;;;;5012987;28;20049;-65
2022/03/28 03:50:11;;;;;;;20.05;12.38;;;10.10;99.90;;;;;;5013019;28;20046;-66
2022/03/28 03:52:39;;;;;;;20.80;12.23;;;10.10;99.90;;;;;;5012548;28;20054;-64
2022/03/28 03:55:07;;;;;;;18.52;11.38;;;10.10;99.90;;;;;;4979355;28;20057;-66
2022/03/28 03:57:35;;;;;;;20.50;11.85;;;10.00;99.90;;;;;;4995562;28;20540;-66
2022/03/28 04:00:04;;;;;;;20.60;12.40;;;10.00;99.90;;;;;;5013041;28;20363;-66
2022/03/28 04:02:41;;;;;;;19.15;11.80;;;10.00;99.90;;;;;;5012992;28;20049;-66
2022/03/28 04:05:09;;;;;;;25.02;12.68;;;9.90;99.90;;;;;;4995530;28;20073;-65
2022/03/28 04:07:37;;;;;;;17.80;11.35;;;9.90;99.90;;;;;;5012942;28;20046;-66
2022/03/28 04:10:06;;;;;;;18.67;11.48;;;9.90;99.90;;;;;;5012811;28;20049;-65
2022/03/28 04:12:34;;;;;;;16.50;10.90;;;9.90;99.90;;;;;;4995291;28;20061;-67
2022/03/28 04:15:02;;;;;;;18.88;11.63;;;9.90;99.90;;;;;;5012501;28;20061;-66
2022/03/28 04:17:44;;;;;;;21.48;11.43;;;9.80;99.90;;;;;;5012707;28;20061;-65
2022/03/28 04:20:14;;;;;;;16.58;10.30;;;9.80;99.90;;;;;;5012608;28;20485;-65
2022/03/28 04:22:43;;;;;;;18.83;10.80;;;9.70;99.90;;;;;;5012650;28;20432;-63
2022/03/28 04:25:11;;;;;;;18.38;11.20;;;9.70;99.90;;;;;;5011793;28;20045;-65
2022/03/28 04:27:40;;;;;;;17.15;11.18;;;9.70;99.90;;;;;;5011354;28;20393;-65
2022/03/28 04:30:09;;;;;;;17.40;10.48;;;9.60;99.90;;;;;;5012574;28;20397;-64
2022/03/28 04:32:37;;;;;;;20.92;11.45;;;9.60;99.90;;;;;;5011795;28;20057;-64
2022/03/28 04:35:06;;;;;;;17.92;11.68;;;9.70;99.90;;;;;;4995020;28;20037;-64
2022/03/28 04:37:35;;;;;;;18.35;11.20;;;9.60;99.90;;;;;;5012516;28;20046;-64
2022/03/28 04:40:05;;;;;;;17.38;11.05;;;9.60;99.90;;;;;;5012407;28;20046;-64
2022/03/28 04:42:33;;;;;;;18.15;11.30;;;9.60;99.90;;;;;;5012242;28;20049;-61
2022/03/28 04:45:01;;;;;;;16.15;10.38;;;9.50;99.90;;;;;;5012354;28;20046;-62
2022/03/28 04:47:29;;;;;;;18.85;10.98;;;9.40;99.90;;;;;;5005790;28;20042;-60
2022/03/28 04:49:58;;;;;;;16.30;10.85;;;9.40;99.90;;;;;;4989311;28;20061;-64
2022/03/28 04:52:26;;;;;;;15.63;10.30;;;9.30;99.90;;;;;;4989144;28;20051;-64
2022/03/28 04:54:53;;;;;;;16.20;10.48;;;9.20;99.90;;;;;;4989128;28;20057;-60
2022/03/28 04:57:21;;;;;;;16.85;11.18;;;9.10;99.90;;;;;;4993530;28;20057;-61
2022/03/28 04:59:49;;;;;;;20.45;11.82;;;9.00;99.90;;;;;;5008648;28;20045;-61
2022/03/28 05:02:16;;;;;;;18.42;11.10;;;8.90;99.90;;;;;;4998821;28;20060;-62
2022/03/28 05:04:44;;;;;;;19.80;11.25;;;8.90;99.90;;;;;;4985891;28;20050;-63
2022/03/28 05:07:12;;;;;;;19.60;12.65;;;8.80;99.90;;;;;;4989338;28;20053;-63
2022/03/28 05:09:40;;;;;;;20.60;12.48;;;8.70;99.90;;;;;;5008481;28;20049;-61
2022/03/28 05:12:08;;;;;;;26.33;14.45;;;8.70;99.90;;;;;;5005710;28;20432;-61
2022/03/28 05:14:35;;;;;;;20.10;12.30;;;8.60;99.90;;;;;;5005578;28;20381;-66
2022/03/28 05:17:05;;;;;;;25.20;11.70;;;8.50;99.90;;;;;;5005502;28;20054;-62
2022/03/28 05:19:33;;;;;;;18.50;11.20;;;8.50;99.90;;;;;;4986085;28;20524;-61
2022/03/28 05:22:00;;;;;;;19.85;11.70;;;8.40;99.90;;;;;;4986808;28;20050;-60
2022/03/28 05:24:28;;;;;;;19.02;10.23;;;8.40;99.90;;;;;;5005397;28;20065;-64
2022/03/28 05:26:56;;;;;;;18.50;10.80;;;8.30;99.90;;;;;;5006882;28;20052;-66
2022/03/28 05:29:24;;;;;;;18.70;12.07;;;8.40;99.90;;;;;;5008325;28;20049;-61
2022/03/28 05:31:52;;;;;;;21.85;12.95;;;8.40;99.90;;;;;;5008275;28;20050;-64
2022/03/28 05:34:20;;;;;;;26.83;11.95;;;8.40;99.90;;;;;;4992402;28;20065;-62
2022/03/28 05:36:50;;;;;;;17.67;11.20;;;8.40;99.90;;;;;;4988887;28;20069;-60
2022/03/28 05:39:18;;;;;;;20.92;11.55;;;8.40;99.90;;;;;;5009700;28;20053;-60
2022/03/28 05:41:46;;;;;;;17.45;11.40;;;8.30;99.90;;;;;;4994552;28;20053;-60
2022/03/28 05:44:14;;;;;;;17.00;10.88;;;8.40;99.90;;;;;;5011735;28;20516;-63
2022/03/28 05:46:41;;;;;;;19.02;11.57;;;8.40;99.90;;;;;;5011875;28;20524;-63
2022/03/28 05:49:09;;;;;;;21.55;11.27;;;8.40;99.90;;;;;;4997862;28;20050;-62
2022/03/28 05:51:37;;;;;;;29.17;12.00;;;8.40;99.90;;;;;;4975219;28;20073;-63
2022/03/28 05:54:10;;;;;;;19.02;12.23;;;8.50;99.90;;;;;;5011487;28;20050;-63
2022/03/28 05:56:38;;;;;;;17.85;11.07;;;8.50;99.90;;;;;;5012117;28;20505;-62
2022/03/28 05:59:07;;;;;;;20.60;11.80;;;8.50;99.90;;;;;;5007213;28;20046;-64
2022/03/28 06:01:36;;;;;;;21.52;12.50;;;8.40;99.90;;;;;;4974905;28;20046;-62
2022/03/28 06:04:07;;;;;;;20.30;10.60;;;8.40;99.90;;;;;;4998566;28;20046;-62
2022/03/28 06:06:35;;;;;;;19.35;11.48;;;8.30;99.90;;;;;;4990241;28;20430;-62
2022/03/28 06:09:03;;;;;;;18.65;11.70;;;8.20;99.90;;;;;;5006220;28;20065;-62
2022/03/28 06:11:31;;;;;;;18.48;12.07;;;8.20;99.90;;;;;;5008562;28;20057;-62
2022/03/28 06:13:59;;;;;;;18.70;12.18;;;8.20;99.90;;;;;;4991101;28;20049;-62
2022/03/28 06:16:27;;;;;;;21.55;11.48;;;8.10;99.90;;;;;;5010000;28;20060;-63
2022/03/28 06:18:54;;;;;;;21.45;11.88;;;8.00;99.90;;;;;;5001588;28;20398;-62
2022/03/28 06:21:22;;;;;;;21.33;11.52;;;8.00;99.90;;;;;;4999118;28;20050;-63
2022/03/28 06:23:50;;;;;;;20.25;12.15;;;8.00;99.90;;;;;;5007880;28;20049;-62
2022/03/28 06:26:18;;;;;;;19.63;11.85;;;8.00;99.90;;;;;;5010998;28;20042;-62
2022/03/28 06:28:46;;;;;;;20.85;12.23;;;7.90;99.90;;;;;;4990901;28;20054;-62
2022/03/28 06:31:15;;;;;;;22.10;12.00;;;7.90;99.90;;;;;;4998989;28;20056;-62
2022/03/28 06:33:43;;;;;;;22.25;12.35;;;7.90;99.90;;;;;;4992518;28;20417;-62
2022/03/28 06:36:11;;;;;;;23.92;12.55;;;7.90;99.90;;;;;;5010966;28;20045;-62
2022/03/28 06:38:38;;;;;;;21.33;12.65;;;7.90;99.90;;;;;;4993385;28;20049;-64
2022/03/28 06:41:06;;;;;;;22.13;13.15;;;8.00;99.90;;;;;;5007562;28;20046;-63
2022/03/28 06:43:34;;;;;;;22.20;12.90;;;8.00;99.90;;;;;;5000873;28;20390;-62
2022/03/28 06:46:02;;;;;;;20.15;11.98;;;8.10;99.90;;;;;;5005376;28;20504;-63
2022/03/28 06:48:29;;;;;;;21.63;12.88;;;8.20;99.90;;;;;;5000693;28;20643;-62
2022/03/28 06:51:01;;;;;;;20.75;12.40;;;8.20;99.90;;;;;;5004707;28;20045;-63
2022/03/28 06:53:29;;;;;;;18.70;12.13;;;8.30;99.90;;;;;;5009718;28;20390;-62
2022/03/28 06:55:57;;;;;;;21.02;12.50;;;8.40;99.90;;;;;;5007109;28;20400;-62
2022/03/28 06:58:25;;;;;;;20.67;12.30;;;8.50;99.90;;;;;;4998051;28;20493;-62
2022/03/28 07:00:53;;;;;;;19.90;12.35;;;8.50;99.90;;;;;;5009787;28;20073;-62
2022/03/28 07:03:21;;;;;;;21.05;12.43;;;8.60;99.90;;;;;;5000913;28;20073;-68
2022/03/28 07:05:49;;;;;;;22.65;12.25;;;8.70;99.90;;;;;;5003009;28;20061;-66
2022/03/28 07:08:16;;;;;;;20.73;12.88;;;8.70;99.90;;;;;;5010087;28;20604;-67
2022/03/28 07:10:45;;;;;;;20.73;11.75;;;8.80;99.90;;;;;;5004059;28;20564;-67
2022/03/28 07:13:13;;;;;;;21.08;12.45;;;8.90;99.90;;;;;;5001990;28;20046;-68
2022/03/28 07:15:40;;;;;;;21.70;12.80;;;8.90;99.90;;;;;;5010634;28;20046;-64
2022/03/28 07:18:08;;;;;;;19.17;11.98;;;9.00;99.90;;;;;;5009381;28;20060;-66
2022/03/28 07:20:36;;;;;;;18.17;11.55;;;9.00;99.90;;;;;;4990797;28;20046;-61
2022/03/28 07:23:05;;;;;;;23.02;14.20;;;9.10;99.90;;;;;;5000686;28;20050;-67
2022/03/28 07:25:33;;;;;;;21.58;13.18;;;9.10;99.90;;;;;;5009480;28;20046;-64
2022/03/28 07:28:07;;;;;;;20.55;12.13;;;9.20;99.90;;;;;;5005498;28;20050;-65
2022/03/28 07:30:36;;;;;;;21.27;13.20;;;9.20;99.90;;;;;;5009949;28;20053;-67
2022/03/28 07:33:06;;;;;;;21.60;13.10;;;9.30;99.90;;;;;;4992616;28;20045;-67
2022/03/28 07:35:35;;;;;;;;;;;9.30;99.90;;;;;;4995227;28;20947;-63
2022/03/28 07:38:07;;;;;;;22.70;12.50;;;9.40;99.90;;;;;;5000073;28;19948;-66
2022/03/28 07:40:37;;;;;;;19.67;12.32;;;9.40;99.90;;;;;;5009405;28;20046;-64
2022/03/28 07:43:05;;;;;;;25.80;13.60;;;9.40;99.90;;;;;;5006570;28;20046;-66
2022/03/28 07:45:34;;;;;;;23.98;13.07;;;9.40;99.90;;;;;;5006213;28;20046;-61
2022/03/28 07:48:03;;;;;;;25.23;13.77;;;9.40;99.90;;;;;;4989806;28;20068;-65
2022/03/28 07:50:31;;;;;;;21.40;13.55;;;9.50;99.90;;;;;;4968693;28;20049;-64
2022/03/28 07:52:58;;;;;;;21.42;13.43;;;9.50;99.90;;;;;;5002343;28;20065;-65
2022/03/28 07:55:27;;;;;;;23.13;14.25;;;9.50;99.90;;;;;;4992242;28;20050;-64
2022/03/28 07:57:55;;;;;;;27.42;14.82;;;9.60;99.90;;;;;;4989426;28;20494;-66
2022/03/28 08:00:23;;;;;;;23.67;13.88;;;9.60;99.90;;;;;;5007746;28;20071;-66
2022/03/28 08:02:52;;;;;;;24.02;14.25;;;9.70;99.90;;;;;;4979990;28;20061;-61
2022/03/28 08:05:21;;;;;;;23.70;13.95;;;9.70;99.90;;;;;;5005910;28;20061;-63
2022/03/28 08:07:50;;;;;;;25.88;13.45;;;9.80;99.90;;;;;;4983730;28;20401;-65
2022/03/28 08:10:18;;;;;;;29.27;13.52;;;9.80;99.90;;;;;;4997785;28;20049;-62
2022/03/28 08:12:47;;;;;;;25.27;13.95;;;9.90;99.90;;;;;;5009155;28;20506;-62
2022/03/28 08:15:16;;;;;;;23.08;14.55;;;9.90;99.90;;;;;;4990258;28;20485;-62
2022/03/28 08:17:43;;;;;;;26.93;14.43;;;9.90;99.90;;;;;;4996462;28;20402;-61
2022/03/28 08:20:13;;;;;;;22.92;13.60;;;10.00;99.90;;;;;;5009715;28;20049;-61
2022/03/28 08:22:49;;;;;;;24.80;14.13;;;10.00;99.90;;;;;;5001647;28;20171;-61
2022/03/28 08:25:19;;;;;;;21.85;13.65;;;10.10;99.90;;;;;;5009178;28;20044;-61
2022/03/28 08:27:48;;;;;;;26.33;15.13;;;10.20;99.90;;;;;;5008653;28;20050;-61
2022/03/28 08:30:16;;;;;;;24.70;13.20;;;10.20;99.90;;;;;;5008745;28;20053;-60
2022/03/28 08:32:46;;;;;;;23.13;13.82;;;10.30;99.90;;;;;;5009055;28;20050;-61
2022/03/28 08:35:14;;;;;;;25.58;14.05;;;10.40;99.90;;;;;;5007931;28;20528;-61
2022/03/28 08:37:43;;;;;;;23.20;14.32;;;10.40;99.90;;;;;;5006774;28;20065;-61
2022/03/28 08:40:14;;;;;;;24.88;15.18;;;10.50;99.90;;;;;;5009220;28;20476;-59
2022/03/28 08:42:42;;;;;;;27.88;15.02;;;10.60;99.90;;;;;;5008452;28;20042;-61
2022/03/28 08:45:13;;;;;;;27.13;15.27;;;10.60;99.90;;;;;;5008420;28;20042;-60
2022/03/28 08:47:43;;;;;;;28.40;15.52;;;10.70;99.90;;;;;;4990722;28;20045;-61
2022/03/28 08:50:32;;;;;;;25.77;16.05;;;10.70;99.90;;;;;;5008856;28;20042;-62
2022/03/28 08:53:00;;;;;;;27.55;15.38;;;10.70;99.90;;;;;;5003902;28;20057;-61
2022/03/28 08:55:28;;;;;;;29.95;15.48;;;10.70;99.90;;;;;;5007002;28;20053;-61
2022/03/28 08:57:55;;;;;;;28.55;16.08;;;10.80;99.90;;;;;;5008717;28;20367;-61
2022/03/28 09:00:23;;;;;;;32.90;15.80;;;10.80;99.90;;;;;;5005178;28;20049;-62
2022/03/28 09:02:55;;;;;;;35.88;16.23;;;10.80;99.90;;;;;;4993862;28;20058;-63
2022/03/28 09:05:39;;;;;;;32.03;15.95;;;10.80;99.90;;;;;;4998920;28;20400;-60
2022/03/28 09:08:09;;;;;;;29.80;15.68;;;10.90;99.90;;;;;;5000670;28;20049;-66
2022/03/28 09:10:46;;;;;;;27.98;15.57;;;10.80;99.90;;;;;;5003295;28;20046;-60
2022/03/28 09:13:16;;;;;;;27.48;16.58;;;10.80;99.90;;;;;;5001055;28;20038;-61
2022/03/28 09:15:58;;;;;;;32.42;15.07;;;10.80;99.90;;;;;;4998463;28;20038;-61
2022/03/28 09:18:31;;;;;;;24.73;14.75;;;10.90;99.90;;;;;;4999473;28;20034;-60
2022/03/28 09:21:04;;;;;;;28.10;15.68;;;11.00;99.90;;;;;;5004863;28;20041;-59
2022/03/28 09:23:43;;;;;;;25.23;14.20;;;11.10;99.90;;;;;;5000796;28;20045;-60
2022/03/28 09:26:25;;;;;;;29.73;15.93;;;11.10;99.90;;;;;;5006172;28;20046;-60
2022/03/28 09:28:58;;;;;;;25.00;14.73;;;11.10;99.90;;;;;;4996479;28;20057;-60
2022/03/28 09:31:33;;;;;;;23.80;13.80;;;11.10;99.90;;;;;;4997308;28;20042;-60
2022/03/28 09:34:04;;;;;;;26.60;15.50;;;11.20;99.90;;;;;;5004838;28;20050;-60
2022/03/28 09:36:51;;;;;;;27.00;14.77;;;11.30;99.90;;;;;;4992573;28;20042;-60
2022/03/28 09:39:22;;;;;;;27.35;14.60;;;11.40;99.90;;;;;;5003601;28;20492;-59
2022/03/28 09:42:08;;;;;;;27.02;14.93;;;11.40;99.90;;;;;;4996262;28;20046;-59
2022/03/28 09:44:40;;;;;;;31.38;14.15;;;11.50;99.90;;;;;;4996614;28;20045;-60
2022/03/28 09:47:13;;;;;;;24.30;14.43;;;11.70;99.90;;;;;;5007061;28;20045;-60
2022/03/28 09:49:43;;;;;;;21.77;14.15;;;11.90;99.90;;;;;;5006380;28;20046;-60
2022/03/28 09:52:15;;;;;;;;;;;12.20;99.90;;;;;;5004126;28;20072;-59
2022/03/28 09:54:51;;;;;;;23.80;13.40;;;12.40;99.90;;;;;;4993647;28;19929;-61
2022/03/28 09:57:27;;;;;;;23.02;13.90;;;12.60;99.90;;;;;;4989617;28;20516;-60
2022/03/28 10:00:15;;;;;;;26.85;12.57;;;12.80;99.90;;;;;;4983907;28;20509;-64
2022/03/28 10:02:43;;;;;;;22.42;13.10;;;12.90;99.90;;;;;;5004873;28;20485;-60
2022/03/28 10:05:11;;;;;;;19.27;12.10;;;13.10;99.90;;;;;;5004730;28;20076;-60
2022/03/28 10:07:39;;;;;;;23.85;12.63;;;13.20;99.90;;;;;;5003713;28;20057;-61
2022/03/28 10:10:07;;;;;;;21.23;11.70;;;13.30;99.90;;;;;;5004990;28;20500;-66
2022/03/28 10:12:37;;;;;;;27.25;14.65;;;13.30;99.90;;;;;;4986463;28;20038;-61
2022/03/28 10:15:06;;;;;;;21.60;13.07;;;13.30;99.90;;;;;;5007152;28;20489;-61
2022/03/28 10:17:34;;;;;;;21.13;11.77;;;13.20;99.90;;;;;;5001501;28;20042;-60
2022/03/28 10:20:02;;;;;;;26.02;13.57;;;13.10;99.90;;;;;;4995840;28;20261;-62
2022/03/28 10:22:52;;;;;;;21.58;12.30;;;13.00;99.90;;;;;;5006747;28;20046;-61
2022/03/28 10:25:24;;;;;;;21.40;11.63;;;12.90;99.90;;;;;;4994469;28;20077;-61
2022/03/28 10:27:53;;;;;;;20.95;12.20;;;12.80;99.90;;;;;;5000187;28;20508;-65
2022/03/28 10:30:27;;;;;;;18.50;12.20;;;12.70;99.90;;;;;;4988362;28;20053;-65
2022/03/28 10:33:18;;;;;;;21.38;13.07;;;12.60;99.90;;;;;;5009262;28;20045;-65
2022/03/28 10:36:00;;;;;;;23.83;14.05;;;12.50;99.90;;;;;;5009998;28;20046;-62
2022/03/28 10:38:29;;;;;;;22.58;13.10;;;12.50;99.90;;;;;;5002520;28;20042;-64
2022/03/28 10:41:05;;;;;;;20.98;12.80;;;12.50;99.90;;;;;;5003996;28;20050;-63
2022/03/28 10:43:34;;;;;;;26.25;13.90;;;12.60;99.90;;;;;;5000966;28;20046;-61
2022/03/28 10:46:12;;;;;;;23.38;14.20;;;12.70;99.90;;;;;;5002242;28;20068;-60
2022/03/28 10:48:50;;;;;;;29.08;14.02;;;12.90;99.90;;;;;;4998435;28;20616;-62
2022/03/28 10:51:29;;;;;;;25.40;13.60;;;13.10;99.90;;;;;;5007605;28;20201;-60
2022/03/28 10:54:07;;;;;;;23.30;12.85;;;13.30;99.90;;;;;;5009281;28;20065;-65
2022/03/28 10:56:45;;;;;;;21.52;12.70;;;13.50;99.90;;;;;;5003044;28;20049;-62
2022/03/28 10:59:18;;;;;;;19.13;11.88;;;13.60;99.90;;;;;;5008857;28;20081;-60
2022/03/28 11:01:52;;;;;;;21.27;11.77;;;13.90;99.90;;;;;;5010645;28;20440;-61
2022/03/28 11:04:24;;;;;;;20.48;12.38;;;14.00;99.90;;;;;;4992154;28;20413;-61
2022/03/28 11:06:59;;;;;;;26.98;13.98;;;14.10;99.90;;;;;;5010756;28;20042;-61
2022/03/28 11:10:00;;;;;;;21.88;12.98;;;14.00;99.90;;;;;;4991256;28;20043;-60
2022/03/28 11:12:38;;;;;;;21.52;12.05;;;14.00;99.90;;;;;;4995991;28;20049;-60
2022/03/28 11:15:15;;;;;;;21.20;13.05;;;14.00;99.90;;;;;;5007604;28;20080;-60
2022/03/28 11:17:58;;;;;;;22.13;10.65;;;14.00;99.90;;;;;;5009650;28;20046;-60
2022/03/28 11:20:28;;;;;;;20.27;11.93;;;14.20;99.90;;;;;;5010039;28;20501;-63
2022/03/28 11:23:10;;;;;;;18.33;12.20;;;14.30;99.90;;;;;;5008494;28;20489;-61
2022/03/28 11:25:44;;;;;;;17.52;11.75;;;14.20;99.90;;;;;;4990953;28;20054;-60
2022/03/28 11:28:16;;;;;;;19.73;11.52;;;14.30;99.90;;;;;;4998729;28;20046;-60
2022/03/28 11:30:43;;;;;;;21.52;11.55;;;14.30;99.90;;;;;;4997937;28;20053;-60
2022/03/28 11:33:14;;;;;;;24.13;11.63;;;14.40;99.90;;;;;;5008086;28;20052;-61
2022/03/28 11:35:52;;;;;;;18.02;11.38;;;14.60;99.90;;;;;;5009841;28;20054;-61
2022/03/28 11:38:28;;;;;;;21.90;11.90;;;14.90;99.90;;;;;;5008843;28;20042;-61
2022/03/28 11:40:57;;;;;;;18.02;10.52;;;15.30;99.90;;;;;;4992802;28;20054;-61
2022/03/28 11:43:34;;;;;;;17.27;10.52;;;15.50;99.90;;;;;;5007800;28;20046;-61
2022/03/28 11:46:10;;;;;;;19.20;10.38;;;15.90;99.90;;;;;;5001414;28;20050;-61
2022/03/28 11:48:49;;;;;;;22.65;11.20;;;16.20;99.90;;;;;;5002984;28;20522;-61
2022/03/28 11:51:17;;;;;;;16.48;10.25;;;16.30;99.90;;;;;;4984055;28;20049;-62
2022/03/28 11:53:45;;;;;;;17.23;11.50;;;16.20;99.90;;;;;;5000371;28;20088;-62
2022/03/28 11:58:14;;;;;;;20.10;11.35;;;16.10;99.90;;;;;;4991680;28;20047;-64
2022/03/28 11:59:22;;;;;;;19.17;11.77;;;16.00;99.90;;;;;;4999545;28;20272;-61
2022/03/28 12:01:58;;;;;;;33.17;11.57;;;15.90;99.90;;;;;;4990088;28;20046;-62
2022/03/28 12:04:26;;;;;;;17.60;10.77;;;15.80;99.90;;;;;;4996951;28;20497;-62
2022/03/28 12:06:57;;;;;;;18.38;10.40;;;15.80;99.90;;;;;;4998758;28;20508;-62
2022/03/28 12:09:25;;;;;;;18.08;10.63;;;15.80;99.90;;;;;;5007179;28;20068;-62
2022/03/28 12:11:55;;;;;;;17.95;10.45;;;16.10;99.90;;;;;;5009238;28;20034;-61
2022/03/28 12:14:24;;;;;;;25.45;14.88;;;16.30;99.90;;;;;;4996150;28;20050;-62
2022/03/28 12:16:55;;;;;;;22.20;13.57;;;16.50;99.90;;;;;;5008326;28;20038;-62
2022/03/28 12:19:27;;;;;;;24.70;11.93;;;16.90;99.90;;;;;;5008656;28;20054;-62
2022/03/28 12:21:58;;;;;;;16.75;10.65;;;17.20;99.90;;;;;;4976305;28;20039;-61
2022/03/28 12:24:28;;;;;;;14.65;9.88;;;17.40;99.90;;;;;;5007007;28;20053;-63
2022/03/28 12:26:59;;;;;;;17.92;9.02;;;17.80;99.90;;;;;;4990714;28;20050;-61
2022/03/28 12:29:33;;;;;;;18.15;10.48;;;17.90;98.30;;;;;;4988433;28;20050;-62
2022/03/28 12:32:04;;;;;;;18.33;11.68;;;18.10;99.90;;;;;;5007108;28;20042;-62
2022/03/28 12:34:34;;;;;;;15.43;9.02;;;18.60;99.90;;;;;;5007768;28;20048;-63
2022/03/28 12:37:02;;;;;;;19.98;9.15;;;19.30;99.60;;;;;;5006077;28;20057;-62
2022/03/28 12:39:30;;;;;;;16.23;9.18;;;19.60;94.80;;;;;;5008566;28;20069;-63
2022/03/28 12:42:00;;;;;;;15.30;8.73;;;19.50;92.20;;;;;;4998957;28;20884;-63
2022/03/28 12:44:28;;;;;;;;;;;19.20;91.70;;;;;;4999168;28;20045;-62
2022/03/28 12:47:04;;;;;;;17.98;9.43;;;19.00;91.30;;;;;;5006827;28;19928;-64
2022/03/28 12:49:43;;;;;;;14.82;8.43;;;18.60;91.90;;;;;;4989051;28;20058;-62